sensor_id;sensor_type;location;lat;lon;timestamp;P1;durP1;ratioP1;P2;durP2;ratioP2
10900;SDS011;5503;53.208;10.392;2022-11-27T00:01:38;22.98;;;8.43;;
10900;SDS011;5503;53.208;10.392;2022-11-27T00:04:07;22.67;;;8.20;;
10900;SDS011;5503;53.208;10.392;2022-11-27T00:06:37;17.27;;;8.35;;
10900;SDS011;5503;53.208;10.392;2022-11-27T00:09:09;20.70;;;8.45;;
10900;SDS011;5503;53.208;10.392;2022-11-27T00:11:38;22.88;;;8.90;;
10900;SDS011;5503;53.208;10.392;2022-11-27T00:14:06;20.67;;;7.97;;
10900;SDS011;5503;53.208;10.392;2022-11-27T00:16:33;18.60;;;7.85;;
10900;SDS011;5503;53.208;10.392;2022-11-27T00:19:00;21.95;;;8.38;;
10900;SDS011;5503;53.208;10.392;2022-11-27T00:21:29;22.15;;;8.15;;
10900;SDS011;5503;53.208;10.392;2022-11-27T00:23:58;20.40;;;8.45;;
10900;SDS011;5503;53.208;10.392;2022-11-27T00:26:26;25.48;;;8.40;;
10900;SDS011;5503;53.208;10.392;2022-11-27T00:28:54;26.02;;;8.50;;
10900;SDS011;5503;53.208;10.392;2022-11-27T00:31:22;25.02;;;7.50;;
10900;SDS011;5503;53.208;10.392;2022-11-27T00:33:52;17.95;;;8.07;;
10900;SDS011;5503;53.208;10.392;2022-11-27T00:36:19;18.85;;;7.32;;
10900;SDS011;5503;53.208;10.392;2022-11-27T00:38:48;20.27;;;8.07;;
10900;SDS011;5503;53.208;10.392;2022-11-27T00:41:15;27.02;;;8.20;;
10900;SDS011;5503;53.208;10.392;2022-11-27T00:43:43;21.75;;;7.32;;
10900;SDS011;5503;53.208;10.392;2022-11-27T00:46:11;20.73;;;7.50;;
10900;SDS011;5503;53.208;10.392;2022-11-27T00:48:38;22.40;;;7.90;;
10900;SDS011;5503;53.208;10.392;2022-11-27T00:51:07;20.55;;;8.45;;
10900;SDS011;5503;53.208;10.392;2022-11-27T00:53:35;16.67;;;7.35;;
10900;SDS011;5503;53.208;10.392;2022-11-27T00:56:04;26.65;;;8.70;;
10900;SDS011;5503;53.208;10.392;2022-11-27T00:58:32;20.23;;;8.10;;
10900;SDS011;5503;53.208;10.392;2022-11-27T01:00:59;21.00;;;8.00;;
10900;SDS011;5503;53.208;10.392;2022-11-27T01:03:28;17.67;;;7.80;;
10900;SDS011;5503;53.208;10.392;2022-11-27T01:05:55;25.60;;;8.23;;
10900;SDS011;5503;53.208;10.392;2022-11-27T01:08:23;18.75;;;7.72;;
10900;SDS011;5503;53.208;10.392;2022-11-27T01:10:50;26.25;;;8.25;;
10900;SDS011;5503;53.208;10.392;2022-11-27T01:13:20;15.93;;;7.93;;
10900;SDS011;5503;53.208;10.392;2022-11-27T01:15:57;23.02;;;8.13;;
10900;SDS011;5503;53.208;10.392;2022-11-27T01:18:25;17.33;;;8.32;;
10900;SDS011;5503;53.208;10.392;2022-11-27T01:20:52;19.15;;;8.40;;
10900;SDS011;5503;53.208;10.392;2022-11-27T01:23:19;22.63;;;7.85;;
10900;SDS011;5503;53.208;10.392;2022-11-27T01:25:47;20.70;;;8.13;;
10900;SDS011;5503;53.208;10.392;2022-11-27T01:28:14;18.30;;;8.68;;
10900;SDS011;5503;53.208;10.392;2022-11-27T01:30:43;17.83;;;7.90;;
10900;SDS011;5503;53.208;10.392;2022-11-27T01:33:10;19.02;;;8.25;;
10900;SDS011;5503;53.208;10.392;2022-11-27T01:35:37;24.05;;;8.02;;
10900;SDS011;5503;53.208;10.392;2022-11-27T01:38:04;17.40;;;7.50;;
10900;SDS011;5503;53.208;10.392;2022-11-27T01:40:31;17.65;;;7.60;;
10900;SDS011;5503;53.208;10.392;2022-11-27T01:42:59;23.55;;;8.07;;
10900;SDS011;5503;53.208;10.392;2022-11-27T01:45:26;19.67;;;7.78;;
10900;SDS011;5503;53.208;10.392;2022-11-27T01:47:55;20.25;;;8.48;;
10900;SDS011;5503;53.208;10.392;2022-11-27T01:50:27;20.45;;;8.40;;
10900;SDS011;5503;53.208;10.392;2022-11-27T01:52:58;17.88;;;8.32;;
10900;SDS011;5503;53.208;10.392;2022-11-27T01:55:29;17.80;;;8.38;;
10900;SDS011;5503;53.208;10.392;2022-11-27T01:57:59;17.75;;;7.63;;
10900;SDS011;5503;53.208;10.392;2022-11-27T02:00:30;21.52;;;8.15;;
10900;SDS011;5503;53.208;10.392;2022-11-27T02:02:58;18.60;;;7.65;;
10900;SDS011;5503;53.208;10.392;2022-11-27T02:05:26;20.88;;;7.47;;
10900;SDS011;5503;53.208;10.392;2022-11-27T02:07:55;22.55;;;9.43;;
10900;SDS011;5503;53.208;10.392;2022-11-27T02:13:01;19.85;;;8.05;;
10900;SDS011;5503;53.208;10.392;2022-11-27T02:15:33;22.60;;;8.15;;
10900;SDS011;5503;53.208;10.392;2022-11-27T02:18:09;22.08;;;9.32;;
10900;SDS011;5503;53.208;10.392;2022-11-27T02:20:42;18.48;;;8.40;;
10900;SDS011;5503;53.208;10.392;2022-11-27T02:23:35;25.25;;;8.15;;
10900;SDS011;5503;53.208;10.392;2022-11-27T02:29:37;17.27;;;8.30;;
10900;SDS011;5503;53.208;10.392;2022-11-27T02:32:07;17.33;;;8.40;;
10900;SDS011;5503;53.208;10.392;2022-11-27T02:34:40;23.83;;;9.23;;
10900;SDS011;5503;53.208;10.392;2022-11-27T02:37:14;15.93;;;8.18;;
10900;SDS011;5503;53.208;10.392;2022-11-27T02:39:48;27.67;;;8.15;;
10900;SDS011;5503;53.208;10.392;2022-11-27T02:42:21;23.13;;;9.57;;
10900;SDS011;5503;53.208;10.392;2022-11-27T02:44:51;18.52;;;7.30;;
10900;SDS011;5503;53.208;10.392;2022-11-27T02:47:25;26.10;;;10.17;;
10900;SDS011;5503;53.208;10.392;2022-11-27T02:49:54;25.13;;;8.57;;
10900;SDS011;5503;53.208;10.392;2022-11-27T02:52:23;19.52;;;7.93;;
10900;SDS011;5503;53.208;10.392;2022-11-27T02:54:53;26.38;;;9.95;;
10900;SDS011;5503;53.208;10.392;2022-11-27T02:57:22;20.63;;;9.77;;
10900;SDS011;5503;53.208;10.392;2022-11-27T02:59:52;20.20;;;9.97;;
10900;SDS011;5503;53.208;10.392;2022-11-27T03:02:23;31.52;;;10.68;;
10900;SDS011;5503;53.208;10.392;2022-11-27T03:04:55;25.08;;;9.63;;
10900;SDS011;5503;53.208;10.392;2022-11-27T03:07:28;26.95;;;9.75;;
10900;SDS011;5503;53.208;10.392;2022-11-27T03:09:59;26.40;;;9.98;;
10900;SDS011;5503;53.208;10.392;2022-11-27T03:12:31;27.47;;;9.73;;
10900;SDS011;5503;53.208;10.392;2022-11-27T03:15:00;31.30;;;10.40;;
10900;SDS011;5503;53.208;10.392;2022-11-27T03:17:34;28.70;;;9.95;;
10900;SDS011;5503;53.208;10.392;2022-11-27T03:20:12;25.42;;;10.50;;
10900;SDS011;5503;53.208;10.392;2022-11-27T03:22:44;22.52;;;9.85;;
10900;SDS011;5503;53.208;10.392;2022-11-27T03:25:11;24.80;;;10.13;;
10900;SDS011;5503;53.208;10.392;2022-11-27T03:27:42;32.20;;;11.95;;
10900;SDS011;5503;53.208;10.392;2022-11-27T03:30:13;28.20;;;10.70;;
10900;SDS011;5503;53.208;10.392;2022-11-27T03:32:41;32.10;;;10.95;;
10900;SDS011;5503;53.208;10.392;2022-11-27T03:35:09;27.17;;;10.85;;
10900;SDS011;5503;53.208;10.392;2022-11-27T03:37:38;22.30;;;10.77;;
10900;SDS011;5503;53.208;10.392;2022-11-27T03:40:06;23.65;;;10.68;;
10900;SDS011;5503;53.208;10.392;2022-11-27T03:42:36;29.42;;;10.70;;
10900;SDS011;5503;53.208;10.392;2022-11-27T03:45:12;24.17;;;10.93;;
10900;SDS011;5503;53.208;10.392;2022-11-27T03:47:53;26.20;;;10.63;;
10900;SDS011;5503;53.208;10.392;2022-11-27T03:50:29;29.83;;;10.70;;
10900;SDS011;5503;53.208;10.392;2022-11-27T03:53:06;24.67;;;9.63;;
10900;SDS011;5503;53.208;10.392;2022-11-27T03:55:41;30.52;;;10.73;;
10900;SDS011;5503;53.208;10.392;2022-11-27T03:58:14;25.00;;;10.57;;
10900;SDS011;5503;53.208;10.392;2022-11-27T04:00:49;27.33;;;12.18;;
10900;SDS011;5503;53.208;10.392;2022-11-27T04:03:21;25.17;;;10.50;;
10900;SDS011;5503;53.208;10.392;2022-11-27T04:05:50;24.52;;;11.60;;
10900;SDS011;5503;53.208;10.392;2022-11-27T04:08:17;24.00;;;10.10;;
10900;SDS011;5503;53.208;10.392;2022-11-27T04:10:44;23.88;;;10.30;;
10900;SDS011;5503;53.208;10.392;2022-11-27T04:13:12;25.02;;;10.15;;
10900;SDS011;5503;53.208;10.392;2022-11-27T04:15:40;23.93;;;9.73;;
10900;SDS011;5503;53.208;10.392;2022-11-27T04:18:09;26.35;;;11.63;;
10900;SDS011;5503;53.208;10.392;2022-11-27T04:20:36;29.55;;;10.40;;
10900;SDS011;5503;53.208;10.392;2022-11-27T04:23:03;23.88;;;10.88;;
10900;SDS011;5503;53.208;10.392;2022-11-27T04:25:30;24.42;;;9.95;;
10900;SDS011;5503;53.208;10.392;2022-11-27T04:27:57;22.83;;;9.90;;
10900;SDS011;5503;53.208;10.392;2022-11-27T04:30:25;25.88;;;10.02;;
10900;SDS011;5503;53.208;10.392;2022-11-27T04:32:52;24.85;;;9.00;;
10900;SDS011;5503;53.208;10.392;2022-11-27T04:35:20;22.35;;;9.77;;
10900;SDS011;5503;53.208;10.392;2022-11-27T04:37:47;25.60;;;10.57;;
10900;SDS011;5503;53.208;10.392;2022-11-27T04:40:15;24.93;;;10.03;;
10900;SDS011;5503;53.208;10.392;2022-11-27T04:42:42;22.70;;;9.63;;
10900;SDS011;5503;53.208;10.392;2022-11-27T04:45:09;23.63;;;9.43;;
10900;SDS011;5503;53.208;10.392;2022-11-27T04:47:36;22.70;;;9.75;;
10900;SDS011;5503;53.208;10.392;2022-11-27T04:50:04;31.65;;;9.40;;
10900;SDS011;5503;53.208;10.392;2022-11-27T04:52:33;27.90;;;9.23;;
10900;SDS011;5503;53.208;10.392;2022-11-27T04:55:00;21.88;;;8.70;;
10900;SDS011;5503;53.208;10.392;2022-11-27T04:57:27;19.35;;;8.45;;
10900;SDS011;5503;53.208;10.392;2022-11-27T04:59:55;20.17;;;9.13;;
10900;SDS011;5503;53.208;10.392;2022-11-27T05:02:22;25.48;;;9.55;;
10900;SDS011;5503;53.208;10.392;2022-11-27T05:04:49;24.20;;;9.10;;
10900;SDS011;5503;53.208;10.392;2022-11-27T05:07:16;26.38;;;9.95;;
10900;SDS011;5503;53.208;10.392;2022-11-27T05:09:45;27.50;;;8.98;;
10900;SDS011;5503;53.208;10.392;2022-11-27T05:12:12;26.15;;;9.48;;
10900;SDS011;5503;53.208;10.392;2022-11-27T05:14:39;24.73;;;9.93;;
10900;SDS011;5503;53.208;10.392;2022-11-27T05:17:07;23.23;;;9.63;;
10900;SDS011;5503;53.208;10.392;2022-11-27T05:19:35;29.13;;;10.20;;
10900;SDS011;5503;53.208;10.392;2022-11-27T05:22:02;24.73;;;9.65;;
10900;SDS011;5503;53.208;10.392;2022-11-27T05:24:29;22.98;;;10.07;;
10900;SDS011;5503;53.208;10.392;2022-11-27T05:26:58;27.55;;;9.85;;
10900;SDS011;5503;53.208;10.392;2022-11-27T05:29:25;24.37;;;10.47;;
10900;SDS011;5503;53.208;10.392;2022-11-27T05:31:52;20.23;;;9.25;;
10900;SDS011;5503;53.208;10.392;2022-11-27T05:34:19;24.65;;;10.07;;
10900;SDS011;5503;53.208;10.392;2022-11-27T05:36:47;26.08;;;10.05;;
10900;SDS011;5503;53.208;10.392;2022-11-27T05:39:14;22.30;;;10.02;;
10900;SDS011;5503;53.208;10.392;2022-11-27T05:41:41;27.37;;;10.83;;
10900;SDS011;5503;53.208;10.392;2022-11-27T05:44:11;25.10;;;10.88;;
10900;SDS011;5503;53.208;10.392;2022-11-27T05:46:40;33.47;;;12.07;;
10900;SDS011;5503;53.208;10.392;2022-11-27T05:49:09;25.65;;;10.95;;
10900;SDS011;5503;53.208;10.392;2022-11-27T05:51:37;27.70;;;10.50;;
10900;SDS011;5503;53.208;10.392;2022-11-27T05:54:04;26.40;;;9.47;;
10900;SDS011;5503;53.208;10.392;2022-11-27T05:56:32;26.70;;;10.65;;
10900;SDS011;5503;53.208;10.392;2022-11-27T05:58:59;30.10;;;10.35;;
10900;SDS011;5503;53.208;10.392;2022-11-27T06:01:27;24.55;;;9.68;;
10900;SDS011;5503;53.208;10.392;2022-11-27T06:03:54;20.58;;;8.15;;
10900;SDS011;5503;53.208;10.392;2022-11-27T06:06:22;23.63;;;8.73;;
10900;SDS011;5503;53.208;10.392;2022-11-27T06:08:49;27.27;;;9.80;;
10900;SDS011;5503;53.208;10.392;2022-11-27T06:11:17;22.40;;;10.27;;
10900;SDS011;5503;53.208;10.392;2022-11-27T06:13:46;22.30;;;9.18;;
10900;SDS011;5503;53.208;10.392;2022-11-27T06:16:14;24.50;;;10.38;;
10900;SDS011;5503;53.208;10.392;2022-11-27T06:18:44;21.47;;;8.93;;
10900;SDS011;5503;53.208;10.392;2022-11-27T06:21:13;25.38;;;9.10;;
10900;SDS011;5503;53.208;10.392;2022-11-27T06:23:41;24.13;;;9.95;;
10900;SDS011;5503;53.208;10.392;2022-11-27T06:26:12;40.97;;;10.07;;
10900;SDS011;5503;53.208;10.392;2022-11-27T06:28:41;23.05;;;9.95;;
10900;SDS011;5503;53.208;10.392;2022-11-27T06:31:09;21.87;;;9.17;;
10900;SDS011;5503;53.208;10.392;2022-11-27T06:33:37;22.15;;;8.93;;
10900;SDS011;5503;53.208;10.392;2022-11-27T06:36:07;17.15;;;8.68;;
10900;SDS011;5503;53.208;10.392;2022-11-27T06:38:35;25.38;;;9.95;;
10900;SDS011;5503;53.208;10.392;2022-11-27T06:41:03;25.63;;;9.68;;
10900;SDS011;5503;53.208;10.392;2022-11-27T06:43:31;25.80;;;10.47;;
10900;SDS011;5503;53.208;10.392;2022-11-27T06:45:59;24.17;;;9.43;;
10900;SDS011;5503;53.208;10.392;2022-11-27T06:48:27;24.05;;;9.38;;
10900;SDS011;5503;53.208;10.392;2022-11-27T06:50:57;23.67;;;10.38;;
10900;SDS011;5503;53.208;10.392;2022-11-27T06:53:26;28.77;;;9.30;;
10900;SDS011;5503;53.208;10.392;2022-11-27T06:55:53;17.83;;;8.27;;
10900;SDS011;5503;53.208;10.392;2022-11-27T06:58:20;19.77;;;9.50;;
10900;SDS011;5503;53.208;10.392;2022-11-27T07:00:47;25.08;;;10.48;;
10900;SDS011;5503;53.208;10.392;2022-11-27T07:03:14;21.73;;;9.05;;
10900;SDS011;5503;53.208;10.392;2022-11-27T07:05:41;23.70;;;8.98;;
10900;SDS011;5503;53.208;10.392;2022-11-27T07:08:09;25.47;;;8.87;;
10900;SDS011;5503;53.208;10.392;2022-11-27T07:10:37;22.88;;;9.77;;
10900;SDS011;5503;53.208;10.392;2022-11-27T07:13:04;23.73;;;9.73;;
10900;SDS011;5503;53.208;10.392;2022-11-27T07:15:31;29.75;;;10.55;;
10900;SDS011;5503;53.208;10.392;2022-11-27T07:17:59;24.77;;;10.32;;
10900;SDS011;5503;53.208;10.392;2022-11-27T07:20:27;26.60;;;10.50;;
10900;SDS011;5503;53.208;10.392;2022-11-27T07:22:54;23.90;;;9.98;;
10900;SDS011;5503;53.208;10.392;2022-11-27T07:25:21;20.65;;;8.73;;
10900;SDS011;5503;53.208;10.392;2022-11-27T07:27:50;27.27;;;10.02;;
10900;SDS011;5503;53.208;10.392;2022-11-27T07:30:17;32.65;;;11.23;;
10900;SDS011;5503;53.208;10.392;2022-11-27T07:32:44;30.33;;;10.03;;
10900;SDS011;5503;53.208;10.392;2022-11-27T07:35:11;29.42;;;11.57;;
10900;SDS011;5503;53.208;10.392;2022-11-27T07:37:39;24.80;;;10.63;;
10900;SDS011;5503;53.208;10.392;2022-11-27T07:40:06;33.88;;;10.70;;
10900;SDS011;5503;53.208;10.392;2022-11-27T07:42:33;23.13;;;8.40;;
10900;SDS011;5503;53.208;10.392;2022-11-27T07:45:02;21.90;;;9.40;;
10900;SDS011;5503;53.208;10.392;2022-11-27T07:47:29;27.90;;;9.38;;
10900;SDS011;5503;53.208;10.392;2022-11-27T07:49:57;25.25;;;9.90;;
10900;SDS011;5503;53.208;10.392;2022-11-27T07:52:24;21.38;;;9.10;;
10900;SDS011;5503;53.208;10.392;2022-11-27T07:54:51;20.45;;;9.02;;
10900;SDS011;5503;53.208;10.392;2022-11-27T07:57:19;25.40;;;10.73;;
10900;SDS011;5503;53.208;10.392;2022-11-27T07:59:46;23.33;;;9.30;;
10900;SDS011;5503;53.208;10.392;2022-11-27T08:02:14;22.15;;;9.43;;
10900;SDS011;5503;53.208;10.392;2022-11-27T08:04:41;30.10;;;10.45;;
10900;SDS011;5503;53.208;10.392;2022-11-27T08:07:09;23.33;;;10.27;;
10900;SDS011;5503;53.208;10.392;2022-11-27T08:09:36;28.60;;;11.13;;
10900;SDS011;5503;53.208;10.392;2022-11-27T08:12:04;21.13;;;8.90;;
10900;SDS011;5503;53.208;10.392;2022-11-27T08:14:31;23.95;;;9.70;;
10900;SDS011;5503;53.208;10.392;2022-11-27T08:16:59;21.52;;;9.70;;
10900;SDS011;5503;53.208;10.392;2022-11-27T08:19:27;20.48;;;9.15;;
10900;SDS011;5503;53.208;10.392;2022-11-27T08:21:54;21.27;;;9.50;;
10900;SDS011;5503;53.208;10.392;2022-11-27T08:24:22;18.77;;;9.07;;
10900;SDS011;5503;53.208;10.392;2022-11-27T08:26:49;22.38;;;9.07;;
10900;SDS011;5503;53.208;10.392;2022-11-27T08:29:17;23.10;;;9.48;;
10900;SDS011;5503;53.208;10.392;2022-11-27T08:31:44;19.95;;;9.10;;
10900;SDS011;5503;53.208;10.392;2022-11-27T08:34:11;23.63;;;9.33;;
10900;SDS011;5503;53.208;10.392;2022-11-27T08:36:40;22.98;;;9.95;;
10900;SDS011;5503;53.208;10.392;2022-11-27T08:39:07;25.55;;;9.50;;
10900;SDS011;5503;53.208;10.392;2022-11-27T08:41:34;22.85;;;9.20;;
10900;SDS011;5503;53.208;10.392;2022-11-27T08:44:01;28.55;;;10.82;;
10900;SDS011;5503;53.208;10.392;2022-11-27T08:46:28;22.40;;;9.13;;
10900;SDS011;5503;53.208;10.392;2022-11-27T08:48:58;16.70;;;6.80;;
10900;SDS011;5503;53.208;10.392;2022-11-27T08:51:25;22.40;;;8.68;;
10900;SDS011;5503;53.208;10.392;2022-11-27T08:53:57;23.05;;;8.75;;
10900;SDS011;5503;53.208;10.392;2022-11-27T08:56:24;22.02;;;9.85;;
10900;SDS011;5503;53.208;10.392;2022-11-27T08:58:51;26.13;;;10.63;;
10900;SDS011;5503;53.208;10.392;2022-11-27T09:01:19;23.30;;;9.88;;
10900;SDS011;5503;53.208;10.392;2022-11-27T09:03:47;25.02;;;10.80;;
10900;SDS011;5503;53.208;10.392;2022-11-27T09:06:20;23.17;;;10.60;;
10900;SDS011;5503;53.208;10.392;2022-11-27T09:08:48;22.13;;;9.90;;
10900;SDS011;5503;53.208;10.392;2022-11-27T09:11:18;27.43;;;9.60;;
10900;SDS011;5503;53.208;10.392;2022-11-27T09:13:45;24.17;;;9.13;;
10900;SDS011;5503;53.208;10.392;2022-11-27T09:16:13;23.35;;;9.70;;
10900;SDS011;5503;53.208;10.392;2022-11-27T09:18:42;22.52;;;9.30;;
10900;SDS011;5503;53.208;10.392;2022-11-27T09:21:10;23.23;;;9.70;;
10900;SDS011;5503;53.208;10.392;2022-11-27T09:23:38;20.90;;;9.57;;
10900;SDS011;5503;53.208;10.392;2022-11-27T09:26:06;21.83;;;9.65;;
10900;SDS011;5503;53.208;10.392;2022-11-27T09:28:36;16.80;;;7.40;;
10900;SDS011;5503;53.208;10.392;2022-11-27T09:31:05;24.08;;;9.00;;
10900;SDS011;5503;53.208;10.392;2022-11-27T09:33:34;20.95;;;9.88;;
10900;SDS011;5503;53.208;10.392;2022-11-27T09:36:03;19.23;;;8.70;;
10900;SDS011;5503;53.208;10.392;2022-11-27T09:38:31;22.30;;;9.98;;
10900;SDS011;5503;53.208;10.392;2022-11-27T09:40:59;21.00;;;10.18;;
10900;SDS011;5503;53.208;10.392;2022-11-27T09:43:33;21.33;;;9.40;;
10900;SDS011;5503;53.208;10.392;2022-11-27T09:46:08;22.40;;;9.52;;
10900;SDS011;5503;53.208;10.392;2022-11-27T09:48:41;21.92;;;9.55;;
10900;SDS011;5503;53.208;10.392;2022-11-27T09:51:14;22.27;;;9.48;;
10900;SDS011;5503;53.208;10.392;2022-11-27T09:53:48;24.25;;;9.00;;
10900;SDS011;5503;53.208;10.392;2022-11-27T09:56:20;20.88;;;9.70;;
10900;SDS011;5503;53.208;10.392;2022-11-27T09:58:49;19.80;;;8.88;;
10900;SDS011;5503;53.208;10.392;2022-11-27T10:01:23;19.98;;;9.15;;
10900;SDS011;5503;53.208;10.392;2022-11-27T10:03:52;23.98;;;8.75;;
10900;SDS011;5503;53.208;10.392;2022-11-27T10:06:21;18.00;;;9.10;;
10900;SDS011;5503;53.208;10.392;2022-11-27T10:08:57;26.08;;;9.48;;
10900;SDS011;5503;53.208;10.392;2022-11-27T10:11:39;22.85;;;10.35;;
10900;SDS011;5503;53.208;10.392;2022-11-27T10:14:26;21.30;;;8.88;;
10900;SDS011;5503;53.208;10.392;2022-11-27T10:17:02;20.63;;;8.73;;
10900;SDS011;5503;53.208;10.392;2022-11-27T10:19:37;17.73;;;8.73;;
10900;SDS011;5503;53.208;10.392;2022-11-27T10:22:15;23.02;;;7.93;;
10900;SDS011;5503;53.208;10.392;2022-11-27T10:24:49;23.75;;;8.65;;
10900;SDS011;5503;53.208;10.392;2022-11-27T10:27:28;18.27;;;8.13;;
10900;SDS011;5503;53.208;10.392;2022-11-27T10:30:02;17.65;;;8.43;;
10900;SDS011;5503;53.208;10.392;2022-11-27T10:32:37;18.98;;;8.32;;
10900;SDS011;5503;53.208;10.392;2022-11-27T10:35:08;13.65;;;6.40;;
10900;SDS011;5503;53.208;10.392;2022-11-27T10:37:39;13.52;;;6.65;;
10900;SDS011;5503;53.208;10.392;2022-11-27T10:40:15;16.20;;;7.13;;
10900;SDS011;5503;53.208;10.392;2022-11-27T10:42:47;18.05;;;7.70;;
10900;SDS011;5503;53.208;10.392;2022-11-27T10:45:22;17.27;;;7.70;;
10900;SDS011;5503;53.208;10.392;2022-11-27T10:47:53;19.55;;;7.40;;
10900;SDS011;5503;53.208;10.392;2022-11-27T10:50:20;21.35;;;7.03;;
10900;SDS011;5503;53.208;10.392;2022-11-27T10:52:49;14.00;;;6.60;;
10900;SDS011;5503;53.208;10.392;2022-11-27T10:55:26;18.55;;;7.82;;
10900;SDS011;5503;53.208;10.392;2022-11-27T10:58:02;13.57;;;6.80;;
10900;SDS011;5503;53.208;10.392;2022-11-27T11:00:37;16.10;;;6.50;;
10900;SDS011;5503;53.208;10.392;2022-11-27T11:03:04;15.70;;;6.68;;
10900;SDS011;5503;53.208;10.392;2022-11-27T11:05:34;16.67;;;6.55;;
10900;SDS011;5503;53.208;10.392;2022-11-27T11:08:04;21.08;;;6.65;;
10900;SDS011;5503;53.208;10.392;2022-11-27T11:10:42;15.95;;;6.68;;
10900;SDS011;5503;53.208;10.392;2022-11-27T11:13:15;14.27;;;6.32;;
10900;SDS011;5503;53.208;10.392;2022-11-27T11:15:50;14.20;;;6.57;;
10900;SDS011;5503;53.208;10.392;2022-11-27T11:18:22;15.90;;;7.05;;
10900;SDS011;5503;53.208;10.392;2022-11-27T11:20:51;12.90;;;6.40;;
10900;SDS011;5503;53.208;10.392;2022-11-27T11:23:27;15.27;;;6.03;;
10900;SDS011;5503;53.208;10.392;2022-11-27T11:25:58;18.25;;;7.85;;
10900;SDS011;5503;53.208;10.392;2022-11-27T11:28:33;14.85;;;7.00;;
10900;SDS011;5503;53.208;10.392;2022-11-27T11:31:15;17.40;;;6.65;;
10900;SDS011;5503;53.208;10.392;2022-11-27T11:33:48;14.23;;;6.68;;
10900;SDS011;5503;53.208;10.392;2022-11-27T11:36:19;15.45;;;6.85;;
10900;SDS011;5503;53.208;10.392;2022-11-27T11:38:47;14.95;;;6.70;;
10900;SDS011;5503;53.208;10.392;2022-11-27T11:41:17;13.00;;;5.93;;
10900;SDS011;5503;53.208;10.392;2022-11-27T11:43:54;11.68;;;5.20;;
10900;SDS011;5503;53.208;10.392;2022-11-27T11:46:25;14.10;;;5.15;;
10900;SDS011;5503;53.208;10.392;2022-11-27T11:48:59;12.27;;;5.45;;
10900;SDS011;5503;53.208;10.392;2022-11-27T11:54:33;11.77;;;5.22;;
10900;SDS011;5503;53.208;10.392;2022-11-27T11:57:13;13.70;;;5.68;;
10900;SDS011;5503;53.208;10.392;2022-11-27T12:00:07;13.60;;;5.45;;
10900;SDS011;5503;53.208;10.392;2022-11-27T12:02:51;12.25;;;5.40;;
10900;SDS011;5503;53.208;10.392;2022-11-27T12:05:30;12.35;;;5.43;;
10900;SDS011;5503;53.208;10.392;2022-11-27T12:08:16;14.85;;;5.10;;
10900;SDS011;5503;53.208;10.392;2022-11-27T12:10:52;17.55;;;5.35;;
10900;SDS011;5503;53.208;10.392;2022-11-27T12:13:30;12.85;;;5.75;;
10900;SDS011;5503;53.208;10.392;2022-11-27T12:16:09;11.88;;;4.97;;
10900;SDS011;5503;53.208;10.392;2022-11-27T12:18:47;12.40;;;5.15;;
10900;SDS011;5503;53.208;10.392;2022-11-27T12:21:29;11.18;;;6.03;;
10900;SDS011;5503;53.208;10.392;2022-11-27T12:24:09;17.45;;;5.60;;
10900;SDS011;5503;53.208;10.392;2022-11-27T12:26:52;16.33;;;6.57;;
10900;SDS011;5503;53.208;10.392;2022-11-27T12:32:25;11.55;;;5.30;;
10900;SDS011;5503;53.208;10.392;2022-11-27T12:35:04;10.52;;;5.35;;
10900;SDS011;5503;53.208;10.392;2022-11-27T12:37:46;14.00;;;5.53;;
10900;SDS011;5503;53.208;10.392;2022-11-27T12:40:23;16.77;;;6.05;;
10900;SDS011;5503;53.208;10.392;2022-11-27T12:43:02;16.80;;;5.25;;
10900;SDS011;5503;53.208;10.392;2022-11-27T12:45:37;11.93;;;5.32;;
10900;SDS011;5503;53.208;10.392;2022-11-27T12:48:11;13.68;;;5.60;;
10900;SDS011;5503;53.208;10.392;2022-11-27T12:50:43;13.38;;;5.30;;
10900;SDS011;5503;53.208;10.392;2022-11-27T12:53:15;15.10;;;6.03;;
10900;SDS011;5503;53.208;10.392;2022-11-27T12:55:57;11.65;;;5.68;;
10900;SDS011;5503;53.208;10.392;2022-11-27T12:58:29;14.63;;;5.40;;
10900;SDS011;5503;53.208;10.392;2022-11-27T13:01:05;16.70;;;5.70;;
10900;SDS011;5503;53.208;10.392;2022-11-27T13:03:36;12.80;;;5.90;;
10900;SDS011;5503;53.208;10.392;2022-11-27T13:06:11;13.43;;;5.25;;
10900;SDS011;5503;53.208;10.392;2022-11-27T13:08:45;12.27;;;4.85;;
10900;SDS011;5503;53.208;10.392;2022-11-27T13:11:19;13.82;;;5.55;;
10900;SDS011;5503;53.208;10.392;2022-11-27T13:13:52;12.40;;;5.68;;
10900;SDS011;5503;53.208;10.392;2022-11-27T13:16:25;13.32;;;5.28;;
10900;SDS011;5503;53.208;10.392;2022-11-27T13:18:56;14.98;;;5.95;;
10900;SDS011;5503;53.208;10.392;2022-11-27T13:21:32;13.98;;;6.15;;
10900;SDS011;5503;53.208;10.392;2022-11-27T13:24:01;15.68;;;6.30;;
10900;SDS011;5503;53.208;10.392;2022-11-27T13:26:30;13.20;;;6.63;;
10900;SDS011;5503;53.208;10.392;2022-11-27T13:29:01;14.57;;;6.32;;
10900;SDS011;5503;53.208;10.392;2022-11-27T13:31:33;16.98;;;6.72;;
10900;SDS011;5503;53.208;10.392;2022-11-27T13:34:03;18.85;;;7.60;;
10900;SDS011;5503;53.208;10.392;2022-11-27T13:36:35;25.60;;;8.98;;
10900;SDS011;5503;53.208;10.392;2022-11-27T13:39:06;19.17;;;7.88;;
10900;SDS011;5503;53.208;10.392;2022-11-27T13:41:47;18.48;;;8.00;;
10900;SDS011;5503;53.208;10.392;2022-11-27T13:44:20;22.50;;;7.25;;
10900;SDS011;5503;53.208;10.392;2022-11-27T13:46:49;11.85;;;6.70;;
10900;SDS011;5503;53.208;10.392;2022-11-27T13:49:20;13.63;;;7.25;;
10900;SDS011;5503;53.208;10.392;2022-11-27T13:52:02;17.35;;;7.30;;
10900;SDS011;5503;53.208;10.392;2022-11-27T13:54:34;16.58;;;7.07;;
10900;SDS011;5503;53.208;10.392;2022-11-27T13:57:08;13.07;;;6.82;;
10900;SDS011;5503;53.208;10.392;2022-11-27T13:59:36;16.20;;;7.00;;
10900;SDS011;5503;53.208;10.392;2022-11-27T14:02:05;27.63;;;11.13;;
10900;SDS011;5503;53.208;10.392;2022-11-27T14:04:33;18.77;;;9.60;;
10900;SDS011;5503;53.208;10.392;2022-11-27T14:07:02;18.52;;;8.02;;
10900;SDS011;5503;53.208;10.392;2022-11-27T14:09:33;15.93;;;8.50;;
10900;SDS011;5503;53.208;10.392;2022-11-27T14:12:12;16.42;;;8.52;;
10900;SDS011;5503;53.208;10.392;2022-11-27T14:14:42;11.70;;;6.68;;
10900;SDS011;5503;53.208;10.392;2022-11-27T14:17:21;14.18;;;5.85;;
10900;SDS011;5503;53.208;10.392;2022-11-27T14:19:57;14.90;;;7.30;;
10900;SDS011;5503;53.208;10.392;2022-11-27T14:22:34;15.07;;;8.07;;
10900;SDS011;5503;53.208;10.392;2022-11-27T14:25:15;14.02;;;6.13;;
10900;SDS011;5503;53.208;10.392;2022-11-27T14:27:44;45.17;;;21.40;;
10900;SDS011;5503;53.208;10.392;2022-11-27T14:30:20;29.15;;;14.02;;
10900;SDS011;5503;53.208;10.392;2022-11-27T14:32:50;32.85;;;15.40;;
10900;SDS011;5503;53.208;10.392;2022-11-27T14:35:18;16.38;;;9.15;;
10900;SDS011;5503;53.208;10.392;2022-11-27T14:37:47;16.48;;;8.57;;
10900;SDS011;5503;53.208;10.392;2022-11-27T14:40:17;16.55;;;7.60;;
10900;SDS011;5503;53.208;10.392;2022-11-27T14:42:47;19.92;;;8.68;;
10900;SDS011;5503;53.208;10.392;2022-11-27T14:45:15;16.25;;;7.30;;
10900;SDS011;5503;53.208;10.392;2022-11-27T14:47:47;14.95;;;7.47;;
10900;SDS011;5503;53.208;10.392;2022-11-27T14:50:16;18.08;;;7.97;;
10900;SDS011;5503;53.208;10.392;2022-11-27T14:52:44;15.57;;;7.95;;
10900;SDS011;5503;53.208;10.392;2022-11-27T14:55:17;14.90;;;7.68;;
10900;SDS011;5503;53.208;10.392;2022-11-27T14:57:45;18.50;;;8.88;;
10900;SDS011;5503;53.208;10.392;2022-11-27T15:00:15;15.43;;;8.18;;
10900;SDS011;5503;53.208;10.392;2022-11-27T15:02:43;15.98;;;8.35;;